createdAt,value
2018-06-03T00:01:39.450Z,24.00
2018-06-03T00:04:08.896Z,24.10
2018-06-03T00:06:38.516Z,24.20
2018-06-03T00:09:08.061Z,24.20
2018-06-03T00:11:37.523Z,24.10
2018-06-03T00:14:07.208Z,24.10
2018-06-03T00:16:36.672Z,24.10
2018-06-03T00:19:06.696Z,24.00
2018-06-03T00:21:44.811Z,24.00
2018-06-03T00:24:14.261Z,23.90
2018-06-03T00:26:44.121Z,23.90
2018-06-03T00:29:14.492Z,23.60
2018-06-03T00:31:44.241Z,23.60
2018-06-03T00:34:15.173Z,23.60
2018-06-03T00:36:45.599Z,23.60
2018-06-03T00:39:14.993Z,23.60
2018-06-03T00:41:47.324Z,23.60
2018-06-03T00:44:16.670Z,23.80
2018-06-03T00:46:47.226Z,23.70
2018-06-03T00:49:16.845Z,23.70
2018-06-03T00:51:46.310Z,23.70
2018-06-03T00:54:15.987Z,23.70
2018-06-03T00:56:56.611Z,23.70
2018-06-03T00:59:26.076Z,23.60
2018-06-03T01:01:55.683Z,23.60
2018-06-03T01:04:25.142Z,23.60
2018-06-03T01:06:54.482Z,23.60
2018-06-03T01:09:24.673Z,23.50
2018-06-03T01:11:53.947Z,23.40
2018-06-03T01:14:23.940Z,23.30
2018-06-03T01:16:53.217Z,23.20
2018-06-03T01:19:22.797Z,23.20
2018-06-03T01:21:52.504Z,23.20
2018-06-03T01:24:21.869Z,23.10
2018-06-03T01:26:52.361Z,23.20
2018-06-03T01:29:22.132Z,23.20
2018-06-03T01:31:51.557Z,23.20
2018-06-03T01:34:21.618Z,23.20
2018-06-03T01:36:51.240Z,23.20
2018-06-03T01:39:21.467Z,23.10
2018-06-03T01:41:51.847Z,23.10
2018-06-03T01:44:21.275Z,23.00
2018-06-03T01:46:50.726Z,23.00
2018-06-03T01:49:20.172Z,22.90
2018-06-03T01:51:49.762Z,22.80
2018-06-03T01:54:19.322Z,22.80
2018-06-03T01:56:48.657Z,22.70
2018-06-03T01:59:18.467Z,22.70
2018-06-03T02:01:48.205Z,22.60
2018-06-03T02:04:17.744Z,22.60
2018-06-03T02:06:47.293Z,22.60
2018-06-03T02:09:17.565Z,22.50
2018-06-03T02:11:46.943Z,22.50
2018-06-03T02:14:16.651Z,22.40
2018-06-03T02:16:46.430Z,22.30
2018-06-03T02:19:17.079Z,22.10
2018-06-03T02:21:46.370Z,22.00
2018-06-03T02:24:15.717Z,22.00
2018-06-03T02:26:46.245Z,21.90
2018-06-03T02:29:15.697Z,21.80
2018-06-03T02:31:46.756Z,21.60
2018-06-03T02:34:16.231Z,21.50
2018-06-03T02:36:45.689Z,21.30
2018-06-03T02:39:14.821Z,21.30
2018-06-03T02:41:43.612Z,21.30
2018-06-03T02:44:12.393Z,21.10
2018-06-03T02:46:42.844Z,21.10
2018-06-03T02:49:12.149Z,21.10
2018-06-03T02:51:42.445Z,21.10
2018-06-03T02:54:11.837Z,21.10
2018-06-03T02:56:42.127Z,21.00
2018-06-03T02:59:11.715Z,21.00
2018-06-03T03:01:41.114Z,21.00
2018-06-03T03:04:10.510Z,20.90
2018-06-03T03:06:39.847Z,20.90
2018-06-03T03:09:09.659Z,20.90
2018-06-03T03:11:40.663Z,20.80
2018-06-03T03:14:10.321Z,20.70
2018-06-03T03:16:40.034Z,20.70
2018-06-03T03:19:09.821Z,20.70
2018-06-03T03:21:39.126Z,20.60
2018-06-03T03:24:08.656Z,20.50
2018-06-03T03:26:39.250Z,20.40
2018-06-03T03:29:09.585Z,20.40
2018-06-03T03:31:39.210Z,20.30
2018-06-03T03:34:08.817Z,20.20
2018-06-03T03:36:39.577Z,20.10
2018-06-03T03:39:08.914Z,20.10
2018-06-03T03:41:38.387Z,20.00
2018-06-03T03:44:09.525Z,19.90
2018-06-03T03:46:39.854Z,19.80
2018-06-03T03:49:09.565Z,19.80
2018-06-03T03:51:39.203Z,19.70
2018-06-03T03:54:08.762Z,19.60
2018-06-03T03:56:39.229Z,19.50
2018-06-03T03:59:09.560Z,19.40
2018-06-03T04:01:39.378Z,19.30
2018-06-03T04:04:08.922Z,19.30
2018-06-03T04:06:39.291Z,19.20
2018-06-03T04:09:09.159Z,19.10
2018-06-03T04:11:39.834Z,19.10
2018-06-03T04:14:09.209Z,19.10
2018-06-03T04:16:38.793Z,19.00
2018-06-03T04:19:09.426Z,18.90
2018-06-03T04:21:40.074Z,18.90
2018-06-03T04:24:10.106Z,18.80
2018-06-03T04:26:39.705Z,18.80
2018-06-03T04:29:09.037Z,18.80
2018-06-03T04:31:38.509Z,18.70
2018-06-03T04:34:08.809Z,18.50
2018-06-03T04:36:40.397Z,18.50
2018-06-03T04:39:11.087Z,18.50
2018-06-03T04:41:41.502Z,18.40
2018-06-03T04:44:10.954Z,18.40
2018-06-03T04:46:40.940Z,18.30
2018-06-03T04:49:10.497Z,18.20
2018-06-03T04:51:39.839Z,18.20
2018-06-03T04:54:10.137Z,18.10
2018-06-03T04:56:41.233Z,18.00
2018-06-03T04:59:12.051Z,18.00
2018-06-03T05:01:43.525Z,17.90
2018-06-03T05:04:13.354Z,17.80
2018-06-03T05:06:44.006Z,17.80
2018-06-03T05:09:13.804Z,17.70
2018-06-03T05:11:44.392Z,17.70
2018-06-03T05:14:14.019Z,17.60
2018-06-03T05:16:43.585Z,17.60
2018-06-03T05:19:14.076Z,17.50
2018-06-03T05:21:43.907Z,17.50
2018-06-03T05:24:15.824Z,17.40
2018-06-03T05:26:45.378Z,17.40
2018-06-03T05:29:16.505Z,17.30
2018-06-03T05:31:47.081Z,17.30
2018-06-03T05:34:17.486Z,17.20
2018-06-03T05:36:48.776Z,17.30
2018-06-03T05:39:18.561Z,17.20
2018-06-03T05:41:48.703Z,17.20
2018-06-03T05:44:19.386Z,17.10
2018-06-03T05:46:49.774Z,17.10
2018-06-03T05:49:20.359Z,17.00
2018-06-03T05:51:49.597Z,17.00
2018-06-03T05:54:20.834Z,17.00
2018-06-03T05:56:52.382Z,16.90
2018-06-03T05:59:21.899Z,16.90
2018-06-03T06:01:51.912Z,16.90
2018-06-03T06:04:21.488Z,16.90
2018-06-03T06:06:52.644Z,16.90
2018-06-03T06:09:25.641Z,16.90
2018-06-03T06:11:55.788Z,16.80
2018-06-03T06:14:25.121Z,16.80
2018-06-03T06:16:54.909Z,16.80
2018-06-03T06:19:24.341Z,16.80
2018-06-03T06:21:54.411Z,16.70
2018-06-03T06:24:26.756Z,16.60
2018-06-03T06:26:56.090Z,16.60
2018-06-03T06:29:26.512Z,16.60
2018-06-03T06:31:57.629Z,16.60
2018-06-03T06:34:27.628Z,16.60
2018-06-03T06:36:57.194Z,16.60
2018-06-03T06:39:27.879Z,16.50
2018-06-03T06:41:57.427Z,16.50
2018-06-03T06:44:28.942Z,16.50
2018-06-03T06:47:00.639Z,16.50
2018-06-03T06:49:30.557Z,16.50
2018-06-03T06:52:00.139Z,16.50
2018-06-03T06:54:31.172Z,16.40
2018-06-03T06:57:03.125Z,16.40
2018-06-03T06:59:33.826Z,16.40
2018-06-03T07:02:03.505Z,16.40
2018-06-03T07:04:33.211Z,16.30
2018-06-03T07:07:03.758Z,16.40
2018-06-03T07:09:34.606Z,16.30
2018-06-03T07:12:04.673Z,16.30
2018-06-03T07:14:35.057Z,16.30
2018-06-03T07:17:05.685Z,16.20
2018-06-03T07:19:36.214Z,16.20
2018-06-03T07:22:06.117Z,16.20
2018-06-03T07:24:37.328Z,16.20
2018-06-03T07:27:08.767Z,16.10
2018-06-03T07:29:38.365Z,16.10
2018-06-03T07:32:07.933Z,16.10
2018-06-03T07:34:37.641Z,16.10
2018-06-03T07:37:07.892Z,16.10
2018-06-03T07:39:38.162Z,16.10
2018-06-03T07:42:07.729Z,16.00
2018-06-03T07:44:37.291Z,16.00
2018-06-03T07:47:06.690Z,16.00
2018-06-03T07:49:36.349Z,16.00
2018-06-03T07:52:05.955Z,16.00
2018-06-03T07:54:36.566Z,16.10
2018-06-03T07:57:06.233Z,16.10
2018-06-03T07:59:36.393Z,16.10
2018-06-03T08:02:06.468Z,16.10
2018-06-03T08:04:37.950Z,16.10
2018-06-03T08:07:08.258Z,16.10
2018-06-03T08:09:39.946Z,16.10
2018-06-03T08:12:09.557Z,16.10
2018-06-03T08:14:39.589Z,16.10
2018-06-03T08:17:10.599Z,16.10
2018-06-03T08:19:41.316Z,16.10
2018-06-03T08:22:12.242Z,16.00
2018-06-03T08:24:41.602Z,16.10
2018-06-03T08:27:12.247Z,16.00
2018-06-03T08:29:44.002Z,16.00
2018-06-03T08:32:13.740Z,16.00
2018-06-03T08:34:43.133Z,16.00
2018-06-03T08:37:12.820Z,16.00
2018-06-03T08:39:44.758Z,16.00
2018-06-03T08:42:15.660Z,16.00
2018-06-03T08:44:45.442Z,16.00
2018-06-03T08:47:15.881Z,16.00
2018-06-03T08:49:46.553Z,16.00
2018-06-03T08:52:18.165Z,15.90
2018-06-03T08:54:48.225Z,15.90
2018-06-03T08:57:18.119Z,15.90
2018-06-03T08:59:48.676Z,15.90
2018-06-03T09:02:18.375Z,15.90
2018-06-03T09:04:47.950Z,15.90
2018-06-03T09:07:17.600Z,15.90
2018-06-03T09:09:47.631Z,15.90
2018-06-03T09:12:17.170Z,15.90
2018-06-03T09:14:47.570Z,15.90
2018-06-03T09:17:18.058Z,15.90
2018-06-03T09:19:47.377Z,15.90
2018-06-03T09:22:16.844Z,15.90
2018-06-03T09:24:47.960Z,15.90
2018-06-03T09:27:18.440Z,15.80
2018-06-03T09:29:47.657Z,15.90
2018-06-03T09:32:17.226Z,15.80
2018-06-03T09:34:47.008Z,15.90
2018-06-03T09:37:16.165Z,15.90
2018-06-03T09:39:45.568Z,15.90
2018-06-03T09:42:15.069Z,15.90
2018-06-03T09:44:44.319Z,15.90
2018-06-03T09:47:15.424Z,15.90
2018-06-03T09:49:44.793Z,15.80
2018-06-03T09:52:14.165Z,15.90
2018-06-03T09:54:43.719Z,15.80
2018-06-03T09:57:13.272Z,15.90
2018-06-03T09:59:42.535Z,15.80
2018-06-03T10:02:12.541Z,15.80
2018-06-03T10:04:42.751Z,15.80
2018-06-03T10:07:12.361Z,15.80
2018-06-03T10:09:42.097Z,15.80
2018-06-03T10:12:11.983Z,15.80
2018-06-03T10:14:42.777Z,15.80
2018-06-03T10:17:12.257Z,15.80
2018-06-03T10:19:42.678Z,15.80
2018-06-03T10:22:12.348Z,15.70
2018-06-03T10:24:42.041Z,15.70
2018-06-03T10:27:11.291Z,15.70
2018-06-03T10:29:42.280Z,15.70
2018-06-03T10:32:12.219Z,15.70
2018-06-03T10:34:41.722Z,15.70
2018-06-03T10:37:11.259Z,15.80
2018-06-03T10:39:41.478Z,15.80
2018-06-03T10:42:10.790Z,15.80
2018-06-03T10:44:40.173Z,15.70
2018-06-03T10:47:09.616Z,15.70
2018-06-03T10:49:38.975Z,15.70
2018-06-03T10:52:08.685Z,15.70
2018-06-03T10:54:38.416Z,15.60
2018-06-03T10:57:08.162Z,15.70
2018-06-03T10:59:38.701Z,15.70
2018-06-03T11:02:08.036Z,15.70
2018-06-03T11:04:37.465Z,15.70
2018-06-03T11:07:08.314Z,15.70
2018-06-03T11:09:37.891Z,15.80
2018-06-03T11:12:07.189Z,15.80
2018-06-03T11:14:37.923Z,15.80
2018-06-03T11:17:07.495Z,15.80
2018-06-03T11:19:37.235Z,15.80
2018-06-03T11:22:08.555Z,15.80
2018-06-03T11:24:38.066Z,15.80
2018-06-03T11:27:07.529Z,15.70
2018-06-03T11:29:37.241Z,15.70
2018-06-03T11:32:06.723Z,15.70
2018-06-03T11:34:38.388Z,15.70
2018-06-03T11:37:07.899Z,15.70
2018-06-03T11:39:38.544Z,15.70
2018-06-03T11:42:08.211Z,15.70
2018-06-03T11:44:37.732Z,15.70
2018-06-03T11:47:07.133Z,15.70
2018-06-03T11:49:36.622Z,15.70
2018-06-03T11:52:05.958Z,15.70
2018-06-03T11:54:36.297Z,15.70
2018-06-03T11:57:06.102Z,15.70
2018-06-03T11:59:40.892Z,15.70
2018-06-03T12:02:10.413Z,15.70
2018-06-03T12:04:39.983Z,15.70
2018-06-03T12:07:09.579Z,15.70
2018-06-03T12:09:39.099Z,15.70
2018-06-03T12:12:09.302Z,15.60
2018-06-03T12:14:38.810Z,15.60
2018-06-03T12:17:08.131Z,15.60
2018-06-03T12:19:37.537Z,15.60
2018-06-03T12:22:07.043Z,15.60
2018-06-03T12:24:38.241Z,15.60
2018-06-03T12:27:07.901Z,15.60
2018-06-03T12:29:37.301Z,15.60
2018-06-03T12:32:07.640Z,15.60
2018-06-03T12:34:38.193Z,15.60
2018-06-03T12:37:08.555Z,15.60
2018-06-03T12:39:38.077Z,15.60
2018-06-03T12:42:07.839Z,15.60
2018-06-03T12:44:37.495Z,15.60
2018-06-03T12:47:06.911Z,15.60
2018-06-03T12:49:36.185Z,15.70
2018-06-03T12:52:05.644Z,15.70
2018-06-03T12:54:35.037Z,15.70
2018-06-03T12:57:04.376Z,15.70
2018-06-03T12:59:35.572Z,15.70
2018-06-03T13:02:05.109Z,15.70
2018-06-03T13:04:34.705Z,15.70
2018-06-03T13:07:04.479Z,15.80
2018-06-03T13:09:35.269Z,15.90
2018-06-03T13:12:04.812Z,15.90
2018-06-03T13:14:34.351Z,15.90
2018-06-03T13:17:04.203Z,16.00
2018-06-03T13:19:35.290Z,15.90
2018-06-03T13:22:04.706Z,15.90
2018-06-03T13:24:34.090Z,15.90
2018-06-03T13:27:03.582Z,15.90
2018-06-03T13:29:33.142Z,15.90
2018-06-03T13:32:03.358Z,16.00
2018-06-03T13:34:32.685Z,16.00
2018-06-03T13:37:02.670Z,15.90
2018-06-03T13:39:31.959Z,15.90
2018-06-03T13:42:01.245Z,15.90
2018-06-03T13:44:30.779Z,15.90
2018-06-03T13:47:00.224Z,16.00
2018-06-03T13:49:29.781Z,16.00
2018-06-03T13:51:59.484Z,16.00
2018-06-03T13:54:29.093Z,15.90
2018-06-03T13:57:00.213Z,16.00
2018-06-03T13:59:29.530Z,16.00
2018-06-03T14:01:59.324Z,16.10
2018-06-03T14:04:29.585Z,16.10
2018-06-03T14:06:59.926Z,16.20
2018-06-03T14:09:29.659Z,16.10
2018-06-03T14:12:00.973Z,16.20
2018-06-03T14:14:31.402Z,16.20
2018-06-03T14:17:01.033Z,16.20
2018-06-03T14:19:30.864Z,16.20
2018-06-03T14:22:01.380Z,16.20
2018-06-03T14:24:31.660Z,16.10
2018-06-03T14:27:01.435Z,16.00
2018-06-03T14:29:30.879Z,16.00
2018-06-03T14:32:00.276Z,16.00
2018-06-03T14:34:29.872Z,16.00
2018-06-03T14:36:59.585Z,16.10
2018-06-03T14:39:30.019Z,16.10
2018-06-03T14:41:59.930Z,16.10
2018-06-03T14:44:29.369Z,16.10
2018-06-03T14:46:58.580Z,16.20
2018-06-03T14:49:28.176Z,16.20
2018-06-03T14:51:57.685Z,16.30
2018-06-03T14:54:28.137Z,16.20
2018-06-03T14:56:58.267Z,16.20
2018-06-03T14:59:27.645Z,16.20
2018-06-03T15:01:57.182Z,16.20
2018-06-03T15:04:27.097Z,16.20
2018-06-03T15:06:57.089Z,16.00
2018-06-03T15:09:26.536Z,16.00
2018-06-03T15:11:56.132Z,16.10
2018-06-03T15:14:25.693Z,16.20
2018-06-03T15:16:55.033Z,16.10
2018-06-03T15:19:24.666Z,16.10
2018-06-03T15:21:55.823Z,16.10
2018-06-03T15:24:25.336Z,16.10
2018-06-03T15:26:54.852Z,16.20
2018-06-03T15:29:23.966Z,16.20
2018-06-03T15:31:53.385Z,16.10
2018-06-03T15:34:23.613Z,16.20
2018-06-03T15:36:53.784Z,16.30
2018-06-03T15:39:23.891Z,16.30
2018-06-03T15:41:55.010Z,16.40
2018-06-03T15:44:24.484Z,16.50
2018-06-03T15:46:54.415Z,16.50
2018-06-03T15:49:24.094Z,16.40
2018-06-03T15:51:56.858Z,16.40
2018-06-03T15:54:26.970Z,16.30
2018-06-03T15:56:56.519Z,16.30
2018-06-03T15:59:25.878Z,16.40
2018-06-03T16:01:56.190Z,16.50
2018-06-03T16:04:25.712Z,16.50
2018-06-03T16:06:55.251Z,16.60
2018-06-03T16:09:24.981Z,16.60
2018-06-03T16:11:54.402Z,16.60
2018-06-03T16:14:23.830Z,16.60
2018-06-03T16:16:53.238Z,16.50
2018-06-03T16:19:24.821Z,16.50
2018-06-03T16:21:54.671Z,16.40
2018-06-03T16:24:24.507Z,16.30
2018-06-03T16:26:53.979Z,16.40
2018-06-03T16:29:23.371Z,16.40
2018-06-03T16:31:52.792Z,16.50
2018-06-03T16:34:22.110Z,16.40
2018-06-03T16:36:51.790Z,16.50
2018-06-03T16:39:21.794Z,16.50
2018-06-03T16:41:51.495Z,16.50
2018-06-03T16:44:21.254Z,16.40
2018-06-03T16:46:50.825Z,16.30
2018-06-03T16:49:21.622Z,16.30
2018-06-03T16:51:51.363Z,16.30
2018-06-03T16:54:20.628Z,16.50
2018-06-03T16:56:51.664Z,16.70
2018-06-03T16:59:21.143Z,16.70
2018-06-03T17:01:50.541Z,16.90
2018-06-03T17:04:19.947Z,17.00
2018-06-03T17:06:49.350Z,17.20
2018-06-03T17:09:21.470Z,17.20
2018-06-03T17:11:51.258Z,17.20
2018-06-03T17:14:21.955Z,17.30
2018-06-03T17:16:51.578Z,17.30
2018-06-03T17:19:21.236Z,17.10
2018-06-03T17:21:50.673Z,17.20
2018-06-03T17:24:20.296Z,17.20
2018-06-03T17:26:50.091Z,17.20
2018-06-03T17:29:19.712Z,17.20
2018-06-03T17:31:49.504Z,17.20
2018-06-03T17:34:19.572Z,17.30
2018-06-03T17:36:50.953Z,17.40
2018-06-03T17:39:20.736Z,17.40
2018-06-03T17:41:50.305Z,17.50
2018-06-03T17:44:19.720Z,17.60
2018-06-03T17:46:49.338Z,17.70
2018-06-03T17:49:18.937Z,17.80
2018-06-03T17:51:48.697Z,17.90
2018-06-03T17:54:18.446Z,18.00
2018-06-03T17:56:48.173Z,18.20
2018-06-03T17:59:17.523Z,18.20
2018-06-03T18:01:46.849Z,18.20
2018-06-03T18:04:16.190Z,18.30
2018-06-03T18:06:45.877Z,18.50
2018-06-03T18:09:16.721Z,18.60
2018-06-03T18:11:46.655Z,18.70
2018-06-03T18:14:16.180Z,19.00
2018-06-03T18:16:45.647Z,19.10
2018-06-03T18:19:15.412Z,19.20
2018-06-03T18:21:46.064Z,19.30
2018-06-03T18:24:15.494Z,19.40
2018-06-03T18:26:45.853Z,19.00
2018-06-03T18:29:15.373Z,19.00
2018-06-03T18:31:44.954Z,18.70
2018-06-03T18:34:15.814Z,18.40
2018-06-03T18:36:45.446Z,18.30
2018-06-03T18:39:14.966Z,18.40
2018-06-03T18:41:44.424Z,18.50
2018-06-03T18:44:14.785Z,18.50
2018-06-03T18:46:44.433Z,18.40
2018-06-03T18:49:14.119Z,18.40
2018-06-03T18:51:45.210Z,18.00
2018-06-03T18:54:15.022Z,18.00
2018-06-03T18:56:44.317Z,17.90
2018-06-03T18:59:14.137Z,17.80
2018-06-03T19:01:43.706Z,17.70
2018-06-03T19:04:14.705Z,17.70
2018-06-03T19:06:44.230Z,17.60
2018-06-03T19:09:14.326Z,17.60
2018-06-03T19:11:45.212Z,17.50
2018-06-03T19:14:14.718Z,17.40
2018-06-03T19:16:44.327Z,17.30
2018-06-03T19:19:14.521Z,17.20
2018-06-03T19:21:45.346Z,17.20
2018-06-03T19:24:14.450Z,17.10
2018-06-03T19:26:44.304Z,17.00
2018-06-03T19:29:13.978Z,17.00
2018-06-03T19:31:43.489Z,17.10
2018-06-03T19:34:14.240Z,17.10
2018-06-03T19:36:44.257Z,17.20
2018-06-03T19:39:15.316Z,17.20
2018-06-03T19:41:45.713Z,17.30
2018-06-03T19:44:15.420Z,17.30
2018-06-03T19:46:44.456Z,17.30
2018-06-03T19:49:14.500Z,17.20
2018-06-03T19:51:43.940Z,17.20
2018-06-03T19:54:13.404Z,17.10
2018-06-03T19:56:42.824Z,17.00
2018-06-03T19:59:13.842Z,17.00
2018-06-03T20:01:43.162Z,16.90
2018-06-03T20:04:12.771Z,17.00
2018-06-03T20:06:42.478Z,16.90
2018-06-03T20:09:11.978Z,16.90
2018-06-03T20:11:41.872Z,17.00
2018-06-03T20:14:11.152Z,16.90
2018-06-03T20:16:41.144Z,16.90
2018-06-03T20:19:11.550Z,17.00
2018-06-03T20:21:40.811Z,16.90
2018-06-03T20:24:11.114Z,17.00
2018-06-03T20:26:41.016Z,17.00
2018-06-03T20:29:10.823Z,17.00
2018-06-03T20:31:40.245Z,17.10
2018-06-03T20:34:09.631Z,17.10
2018-06-03T20:36:39.299Z,17.00
2018-06-03T20:39:09.099Z,16.90
2018-06-03T20:41:38.670Z,16.80
2018-06-03T20:44:09.033Z,16.60
2018-06-03T20:46:38.648Z,16.60
2018-06-03T20:49:08.173Z,16.60
2018-06-03T20:51:38.836Z,16.60
2018-06-03T20:54:08.790Z,16.40
2018-06-03T20:56:38.310Z,16.40
2018-06-03T20:59:09.525Z,16.30
2018-06-03T21:01:39.772Z,16.40
2018-06-03T21:04:09.618Z,16.40
2018-06-03T21:06:39.061Z,16.40
2018-06-03T21:09:08.688Z,16.40
2018-06-03T21:11:37.995Z,16.30
2018-06-03T21:14:08.356Z,16.30
2018-06-03T21:16:37.948Z,16.50
2018-06-03T21:19:09.411Z,16.50
2018-06-03T21:21:38.702Z,16.70
2018-06-03T21:24:08.195Z,16.70
2018-06-03T21:26:37.913Z,16.50
2018-06-03T21:29:08.057Z,16.30
2018-06-03T21:31:37.584Z,16.00
2018-06-03T21:34:07.235Z,16.00
2018-06-03T21:36:39.567Z,16.00
2018-06-03T21:39:10.487Z,16.00
2018-06-03T21:41:39.839Z,16.00
2018-06-03T21:44:09.353Z,16.10
2018-06-03T21:46:40.073Z,16.20
2018-06-03T21:49:09.419Z,16.10
2018-06-03T21:51:39.151Z,16.00
2018-06-03T21:54:08.552Z,15.90
2018-06-03T21:56:40.052Z,15.70
2018-06-03T21:59:09.400Z,15.60
2018-06-03T22:01:39.096Z,15.60
2018-06-03T22:04:08.528Z,15.60
2018-06-03T22:06:37.728Z,15.60
2018-06-03T22:09:07.472Z,15.50
2018-06-03T22:11:37.006Z,15.60
2018-06-03T22:14:06.479Z,15.60
2018-06-03T22:16:36.499Z,15.60
2018-06-03T22:19:07.428Z,15.70
2018-06-03T22:21:36.737Z,15.70
2018-06-03T22:24:07.171Z,15.70
2018-06-03T22:26:36.473Z,15.80
2018-06-03T22:29:05.978Z,15.80
2018-06-03T22:31:36.506Z,15.80
2018-06-03T22:34:06.098Z,15.80
2018-06-03T22:36:35.412Z,15.90
2018-06-03T22:39:05.423Z,15.70
2018-06-03T22:41:34.771Z,15.70
2018-06-03T22:44:04.839Z,15.80
2018-06-03T22:46:34.105Z,15.70
2018-06-03T22:49:03.743Z,15.70
2018-06-03T22:51:33.335Z,15.70
2018-06-03T22:54:02.970Z,15.70
2018-06-03T22:56:32.835Z,15.60
2018-06-03T22:59:02.483Z,15.60
2018-06-03T23:01:31.709Z,15.50
2018-06-03T23:04:01.765Z,15.50
2018-06-03T23:06:31.452Z,15.50
2018-06-03T23:09:00.976Z,15.30
2018-06-03T23:11:30.769Z,15.30
2018-06-03T23:14:00.608Z,15.20
2018-06-03T23:16:29.821Z,15.10
2018-06-03T23:19:00.681Z,15.10
2018-06-03T23:21:30.521Z,15.10
2018-06-03T23:24:00.080Z,15.10
2018-06-03T23:26:29.314Z,15.00
2018-06-03T23:28:58.556Z,15.10
2018-06-03T23:31:29.329Z,15.20
2018-06-03T23:33:58.676Z,15.20
2018-06-03T23:36:28.355Z,15.20
2018-06-03T23:38:57.648Z,15.20
2018-06-03T23:41:28.133Z,15.20
2018-06-03T23:43:57.678Z,15.40
2018-06-03T23:46:27.222Z,15.50
2018-06-03T23:48:56.642Z,15.60
2018-06-03T23:51:28.253Z,15.50
2018-06-03T23:53:58.117Z,15.50
2018-06-03T23:56:28.807Z,15.60
2018-06-03T23:58:58.100Z,15.50
